Time;durP1;ratioP1;P1;durP2;ratioP2;P2;SDS_P1;SDS_P2;PMS_P1;PMS_P2;Temp;Humidity;BMP_temperature;BMP_pressure;BME280_temperature;BME280_humidity;BME280_pressure;Samples;Min_cycle;Max_cycle;Signal;HPM_P1;HPM_P2
2023/01/05 00:00:34;;;;;;;15.50;1.83;;;;;;;-146.25;99.98;52475.66;2079860;28;37435;-72
2023/01/05 00:01:36;;;;;;;20.70;2.42;;;;;;;-146.25;99.54;52477.69;2071257;28;37979;-72
2023/01/05 00:02:38;;;;;;;19.10;1.88;;;;;;;-146.25;99.39;52469.56;2080339;28;20045;-73
2023/01/05 00:03:40;;;;;;;20.30;2.13;;;;;;;-146.25;99.46;52461.47;2088147;28;36842;-73
2023/01/05 00:04:43;;;;;;;22.00;2.20;;;;;;;-146.25;99.29;52518.25;2087833;28;37296;-73
2023/01/05 00:05:45;;;;;;;13.82;1.80;;;;;;;-146.25;98.39;52455.38;2088720;28;26985;-73
2023/01/05 00:06:47;;;;;;;13.40;1.80;;;;;;;-146.25;98.65;52487.81;2092462;28;38332;-73
2023/01/05 00:07:49;;;;;;;19.25;2.60;;;;;;;-146.25;98.55;52491.88;2087582;28;42586;-73
2023/01/05 00:08:53;;;;;;;17.38;1.88;;;;;;;-146.25;98.04;52481.75;2089068;28;20899;-73
2023/01/05 00:09:54;;;;;;;18.73;2.25;;;;;;;-146.25;98.04;52443.22;2096414;28;41043;-73
2023/01/05 00:23:03;;;;;;;11.90;1.52;;;;;;;-146.25;99.37;52481.75;2079245;28;36413;-73
2023/01/05 00:24:05;;;;;;;15.85;1.30;;;;;;;-146.25;99.67;52506.06;2082069;28;42159;-72
2023/01/05 00:25:12;;;;;;;15.90;1.67;;;;;;;-146.25;99.80;52504.03;2088025;28;36555;-73
2023/01/05 00:26:14;;;;;;;12.52;1.98;;;;;;;-146.25;100.00;52489.84;2088194;28;39299;-72
2023/01/05 00:27:16;;;;;;;15.73;1.52;;;;;;;-146.25;100.00;52504.03;2088796;28;20029;-73
2023/01/05 00:28:17;;;;;;;16.75;2.00;;;;;;;-146.25;100.00;52453.34;2088172;28;29741;-72
2023/01/05 00:29:19;;;;;;;15.23;1.92;;;;;;;-146.25;100.00;52532.44;2088928;28;20033;-73
2023/01/05 00:30:26;;;;;;;12.90;1.60;;;;;;;-146.25;100.00;52491.88;2088410;28;29717;-73
2023/01/05 00:31:28;;;;;;;19.08;2.13;;;;;;;-146.25;100.00;52493.91;2079279;28;34618;-73
2023/01/05 00:32:29;;;;;;;14.55;1.42;;;;;;;-146.25;100.00;52500.00;2079611;28;27554;-73
2023/01/05 00:33:31;;;;;;;14.75;1.55;;;;;;;-146.25;100.00;52508.09;2080112;28;20078;-73
2023/01/05 00:34:33;;;;;;;13.02;1.20;;;;;;;-146.25;100.00;52493.91;2079036;28;36423;-73
2023/01/05 00:35:35;;;;;;;15.07;1.60;;;;;;;-146.25;100.00;52506.06;2079698;28;29759;-73
2023/01/05 00:36:39;;;;;;;13.13;1.55;;;;;;;-146.25;100.00;52524.31;2087940;28;32123;-73
2023/01/05 00:37:42;;;;;;;17.52;1.85;;;;;;;-146.25;100.00;52483.78;2087572;28;25500;-74
2023/01/05 00:38:44;;;;;;;14.07;2.45;;;;;;;-146.25;100.00;52504.03;2079222;28;30076;-73
2023/01/05 00:39:45;;;;;;;19.90;2.28;;;;;;;-146.25;100.00;52508.09;2071231;28;30126;-73
2023/01/05 00:40:48;;;;;;;21.48;2.30;;;;;;;-146.25;100.00;52506.06;2079085;28;31713;-72
2023/01/05 00:41:50;;;;;;;18.45;1.80;;;;;;;-146.25;100.00;52463.50;2079531;28;20049;-73
2023/01/05 00:42:54;;;;;;;12.25;2.00;;;;;;;-146.25;100.00;52508.09;2091501;28;20936;-73
2023/01/05 00:43:55;;;;;;;15.02;2.20;;;;;;;-146.25;100.00;52477.69;2095918;28;25437;-73
2023/01/05 00:44:59;;;;;;;15.82;2.05;;;;;;;-146.25;100.00;52485.81;2087919;28;21072;-73
2023/01/05 00:46:01;;;;;;;18.67;1.95;;;;;;;-146.25;100.00;52504.03;2096544;28;34936;-73
2023/01/05 00:47:03;;;;;;;20.83;1.85;;;;;;;-146.25;100.00;52481.75;2096488;28;32410;-73
2023/01/05 00:48:05;;;;;;;16.08;1.75;;;;;;;-146.25;100.00;52449.31;2088167;28;20891;-72
2023/01/05 00:49:08;;;;;;;15.60;2.10;;;;;;;-146.25;100.00;52491.88;2079067;28;27846;-73
2023/01/05 00:50:14;;;;;;;15.15;1.80;;;;;;;-146.25;100.00;52497.97;2087955;28;32316;-72
2023/01/05 00:51:16;;;;;;;12.77;1.50;;;;;;;-146.25;100.00;52467.56;2086264;28;36020;-73
2023/01/05 00:52:18;;;;;;;14.23;2.05;;;;;;;-146.25;100.00;52504.03;2080160;28;32860;-73
2023/01/05 00:53:19;;;;;;;15.73;1.80;;;;;;;-146.25;100.00;52508.09;2087627;28;25638;-73
2023/01/05 00:54:21;;;;;;;19.83;2.83;;;;;;;-146.25;100.00;52506.06;2096356;28;35362;-73
2023/01/05 00:55:23;;;;;;;20.25;2.08;;;;;;;-146.25;100.00;52491.88;2096313;28;33355;-72
2023/01/05 00:56:24;;;;;;;17.30;2.17;;;;;;;-146.25;100.00;52485.81;2087887;28;21153;-73
2023/01/05 00:57:26;;;;;;;14.95;1.65;;;;;;;-146.25;100.00;52483.78;2079256;28;29965;-72
2023/01/05 00:58:29;;;;;;;19.15;2.38;;;;;;;-146.25;100.00;52481.75;2080105;28;20112;-73
2023/01/05 00:59:31;;;;;;;11.95;1.40;;;;;;;-146.25;100.00;52435.09;2086421;28;36639;-72
2023/01/05 01:00:32;;;;;;;12.07;1.40;;;;;;;-146.25;100.00;52497.97;2088023;28;20145;-73
2023/01/05 01:01:34;;;;;;;16.63;1.83;;;;;;;-146.25;100.00;52475.66;2096571;28;21766;-72
2023/01/05 01:02:36;;;;;;;10.95;1.42;;;;;;;-146.25;100.00;52457.41;2096349;28;34994;-73
2023/01/05 01:03:38;;;;;;;16.98;1.92;;;;;;;-146.25;100.00;52485.81;2095394;28;37590;-73
2023/01/05 01:04:40;;;;;;;11.95;1.55;;;;;;;-146.25;100.00;52493.91;2087781;28;33085;-73
2023/01/05 01:05:42;;;;;;;11.45;1.30;;;;;;;-146.25;100.00;52506.06;2087293;28;26001;-73
2023/01/05 01:06:43;;;;;;;13.25;1.50;;;;;;;-146.25;100.00;52504.03;2095739;28;37789;-72
2023/01/05 01:07:48;;;;;;;11.68;1.25;;;;;;;-146.25;100.00;52489.84;2103915;28;28804;-73
2023/01/05 01:08:50;;;;;;;13.73;1.42;;;;;;;-146.25;100.00;52485.81;2096213;28;40480;-72
2023/01/05 01:09:51;;;;;;;11.27;1.05;;;;;;;-146.25;100.00;52497.97;2096488;28;27364;-73
2023/01/05 01:10:53;;;;;;;12.18;1.33;;;;;;;-146.25;100.00;52481.75;2087857;28;20053;-72
2023/01/05 01:11:55;;;;;;;10.32;1.23;;;;;;;-146.25;100.00;52463.50;2078709;28;39098;-72
2023/01/05 01:12:57;;;;;;;10.55;1.13;;;;;;;-146.25;100.00;52518.25;2087787;28;20037;-72
2023/01/05 01:14:01;;;;;;;10.68;1.25;;;;;;;-146.25;100.00;52520.28;2087161;28;34507;-73
2023/01/05 01:15:04;;;;;;;9.32;0.93;;;;;;;-146.25;100.00;52457.41;2096611;28;34515;-73
2023/01/05 01:16:14;;;;;;;11.00;1.05;;;;;;;-146.25;100.00;52445.25;2086893;28;36856;-73
2023/01/05 01:17:16;;;;;;;9.25;1.20;;;;;;;-146.25;100.00;52491.88;2080815;28;35654;-73
2023/01/05 01:18:18;;;;;;;12.77;1.35;;;;;;;-146.25;100.00;52465.53;2088349;28;36644;-73
2023/01/05 01:19:23;;;;;;;9.20;1.15;;;;;;;-146.25;100.00;52493.91;2097112;28;20033;-73
2023/01/05 01:20:25;;;;;;;15.00;1.45;;;;;;;-146.25;100.00;52489.84;2087713;28;20048;-73
2023/01/05 01:21:27;;;;;;;10.98;1.13;;;;;;;-146.25;100.00;52548.66;2071412;28;31217;-73
2023/01/05 01:22:29;;;;;;;11.85;1.50;;;;;;;-146.25;100.00;52518.25;2071781;28;20868;-73
2023/01/05 01:23:32;;;;;;;9.93;0.90;;;;;;;-146.25;100.00;52495.94;2078902;28;38307;-73
2023/01/05 01:24:34;;;;;;;15.38;1.52;;;;;;;-146.25;100.00;52493.91;2079417;28;30041;-73
2023/01/05 01:25:39;;;;;;;12.13;1.02;;;;;;;-146.25;100.00;52469.56;2087846;28;33523;-73
2023/01/05 01:26:41;;;;;;;9.60;1.25;;;;;;;-146.25;100.00;52467.56;2087840;28;31928;-73
2023/01/05 01:27:42;;;;;;;12.20;1.00;;;;;;;-146.25;100.00;52477.69;2079272;28;20058;-72
2023/01/05 01:28:48;;;;;;;10.23;1.50;;;;;;;-146.25;100.00;52479.72;2079078;28;34556;-73
2023/01/05 01:29:50;;;;;;;9.35;1.10;;;;;;;-146.25;100.00;52447.28;2093994;28;20771;-72
2023/01/05 01:30:51;;;;;;;12.88;1.77;;;;;;;-146.25;100.00;52491.88;2094755;28;35927;-73
2023/01/05 01:31:53;;;;;;;15.10;1.33;;;;;;;-146.25;100.00;52497.97;2095927;28;31052;-73
2023/01/05 01:32:55;;;;;;;13.07;1.35;;;;;;;-146.25;100.00;52481.75;2096425;28;20866;-73
2023/01/05 01:33:57;;;;;;;15.07;1.50;;;;;;;-146.25;100.00;52491.88;2086998;28;36227;-72
2023/01/05 01:34:58;;;;;;;12.75;1.25;;;;;;;-146.25;100.00;52528.38;2078794;28;37548;-72
2023/01/05 01:36:05;;;;;;;13.63;1.30;;;;;;;-146.25;100.00;52471.59;2087726;28;20042;-73
2023/01/05 01:37:07;;;;;;;9.38;1.83;;;;;;;-146.25;100.00;52516.22;2095404;28;38068;-73
2023/01/05 01:38:14;;;;;;;13.20;1.27;;;;;;;-146.25;100.00;52473.63;2087855;28;20054;-73
2023/01/05 01:39:17;;;;;;;13.93;1.30;;;;;;;-146.25;100.00;52477.69;2078987;28;20176;-73
2023/01/05 01:40:22;;;;;;;12.93;1.20;;;;;;;-146.25;100.00;52502.03;2089319;28;20087;-73
2023/01/05 01:41:23;;;;;;;12.15;1.48;;;;;;;-146.25;100.00;52465.53;2095824;28;20130;-73
2023/01/05 01:42:25;;;;;;;11.18;0.90;;;;;;;-146.25;100.00;52471.59;2079469;28;20156;-72
2023/01/05 01:43:45;;;;;;;9.75;1.10;;;;;;;-146.25;100.00;52487.81;2087332;28;20038;-72
2023/01/05 01:45:01;;;;;;;11.05;0.95;;;;;;;-146.25;99.37;52495.94;2079420;28;20073;-73
2023/01/05 01:46:09;;;;;;;11.40;1.15;;;;;;;-146.25;98.87;52467.56;2086342;28;20082;-73
2023/01/05 01:47:21;;;;;;;11.77;1.33;;;;;;;-146.25;98.91;52477.69;2095365;28;23011;-73
2023/01/05 01:48:22;;;;;;;10.70;1.05;;;;;;;-146.25;99.06;52451.31;2078747;28;28863;-72
2023/01/05 01:49:24;;;;;;;9.80;1.00;;;;;;;-146.25;98.74;52481.75;2088054;28;38227;-73
2023/01/05 01:50:35;;;;;;;12.77;1.00;;;;;;;-146.25;99.11;52504.03;2096478;28;20044;-73
2023/01/05 01:51:46;;;;;;;13.43;1.52;;;;;;;-146.25;98.45;52479.72;2095552;28;20079;-72
2023/01/05 01:52:53;;;;;;;12.65;1.27;;;;;;;-146.25;98.41;52512.16;2087635;28;20960;-73
2023/01/05 01:54:00;;;;;;;10.80;1.00;;;;;;;-146.25;98.90;52477.69;2071215;28;33359;-73
2023/01/05 01:55:05;;;;;;;16.52;1.13;;;;;;;-146.25;98.47;52500.00;2080090;28;25912;-73
2023/01/05 01:56:13;;;;;;;10.75;1.08;;;;;;;-146.25;98.76;52451.31;2079430;28;28518;-73
2023/01/05 01:57:18;;;;;;;12.68;1.45;;;;;;;-146.25;98.47;52489.84;2072169;28;20942;-73
2023/01/05 01:58:26;;;;;;;8.02;1.08;;;;;;;-146.25;98.73;52487.81;2081343;28;20150;-72
2023/01/05 01:59:28;;;;;;;11.07;1.02;;;;;;;-146.25;98.48;52481.75;2095752;28;36581;-73
2023/01/05 02:00:30;;;;;;;8.02;1.10;;;;;;;-146.25;98.60;52475.66;2087479;28;20479;-72
2023/01/05 02:01:32;;;;;;;8.30;0.80;;;;;;;-146.25;98.68;52481.75;2087580;28;20045;-73
2023/01/05 02:02:36;;;;;;;5.90;0.88;;;;;;;-146.25;98.40;52502.03;2097465;28;20837;-72
2023/01/05 02:03:39;;;;;;;7.68;0.80;;;;;;;-146.25;98.14;52518.25;2088704;28;27726;-73
2023/01/05 02:04:43;;;;;;;8.90;1.10;;;;;;;-146.25;98.22;52461.47;2071839;28;20090;-73
2023/01/05 02:05:45;;;;;;;10.80;0.93;;;;;;;-146.25;98.04;52487.81;2080840;28;32842;-73
2023/01/05 02:06:49;;;;;;;8.98;0.82;;;;;;;-146.25;98.19;52455.38;2088514;28;35453;-73
2023/01/05 02:07:50;;;;;;;7.45;0.70;;;;;;;-146.25;99.03;52459.44;2088216;28;40645;-73
2023/01/05 02:08:52;;;;;;;7.88;1.00;;;;;;;-146.25;99.27;52487.81;2089119;28;20088;-73
2023/01/05 02:09:55;;;;;;;9.32;1.00;;;;;;;-146.25;99.42;52483.78;2088760;28;20081;-72
2023/01/05 02:11:42;;;;;;;8.05;1.00;;;;;;;-146.25;99.87;52516.22;2088904;28;20046;-72
2023/01/05 02:13:22;;;;;;;8.07;0.82;;;;;;;-146.25;100.00;52473.63;2089040;28;20061;-73
2023/01/05 02:14:52;;;;;;;9.43;0.95;;;;;;;-146.25;100.00;52502.03;2089530;28;20885;-72
2023/01/05 02:16:15;;;;;;;8.02;0.90;;;;;;;-146.25;100.00;52487.81;2088730;28;26014;-73
2023/01/05 02:17:30;;;;;;;7.15;0.82;;;;;;;-146.25;100.00;52493.91;2088899;28;20164;-73
2023/01/05 02:18:58;;;;;;;6.85;0.70;;;;;;;-146.25;100.00;52493.91;2096860;28;20041;-73
2023/01/05 02:20:21;;;;;;;7.13;0.63;;;;;;;-146.25;100.00;52491.88;2085430;28;20494;-72
2023/01/05 02:22:07;;;;;;;8.50;1.00;;;;;;;-146.25;100.00;52463.50;2085853;28;20046;-73
2023/01/05 02:23:36;;;;;;;6.55;0.80;;;;;;;-146.25;100.00;52424.97;2080461;28;20053;-72
2023/01/05 02:25:17;;;;;;;5.88;0.77;;;;;;;-146.25;100.00;52497.97;2084152;28;31401;-73
2023/01/05 02:26:44;;;;;;;7.63;1.10;;;;;;;-146.25;100.00;52512.16;2080431;28;20122;-73
2023/01/05 02:28:22;;;;;;;8.75;1.33;;;;;;;-146.25;100.00;52489.84;2084868;28;20034;-73
2023/01/05 02:30:32;;;;;;;9.80;1.27;;;;;;;-146.25;100.00;52514.19;2071883;28;20050;-73
2023/01/05 02:31:47;;;;;;;11.07;1.70;;;;;;;-146.25;100.00;52506.06;2047584;28;20039;-72
2023/01/05 02:33:16;;;;;;;9.02;1.73;;;;;;;-146.25;100.00;52536.50;2078519;28;20258;-72
2023/01/05 02:34:32;;;;;;;11.18;1.70;;;;;;;-146.25;100.00;52481.75;2081063;28;20034;-72
2023/01/05 02:35:49;;;;;;;12.63;1.55;;;;;;;-146.25;100.00;52514.19;2101833;28;20728;-72
2023/01/05 02:37:04;;;;;;;11.45;2.00;;;;;;;-146.25;100.00;52510.13;2087971;28;20862;-72
2023/01/05 02:38:31;;;;;;;14.60;1.88;;;;;;;-146.25;99.42;52504.03;2093548;28;23991;-72
2023/01/05 02:40:07;;;;;;;16.98;2.40;;;;;;;-146.25;99.13;52481.75;2097348;28;20079;-72
2023/01/05 02:41:34;;;;;;;13.35;1.55;;;;;;;-146.25;99.43;52489.84;2088244;28;20072;-72
2023/01/05 02:42:40;;;;;;;13.25;2.00;;;;;;;-146.25;99.37;52467.56;2075680;28;20038;-72
2023/01/05 02:43:44;;;;;;;16.77;1.90;;;;;;;-146.25;98.75;52500.00;2081968;28;37552;-72
2023/01/05 02:44:46;;;;;;;14.48;1.80;;;;;;;-146.25;99.16;52477.69;2088881;28;20037;-72
2023/01/05 02:45:51;;;;;;;14.85;2.38;;;;;;;-146.25;99.03;52520.28;2087653;28;37351;-72
2023/01/05 02:47:23;;;;;;;14.43;1.92;;;;;;;-146.25;98.40;52495.94;2088647;28;20159;-72
2023/01/05 02:48:26;;;;;;;18.23;2.70;;;;;;;-146.25;98.78;52516.22;2085504;28;20038;-72
2023/01/05 02:49:32;;;;;;;13.15;1.98;;;;;;;-146.25;98.47;52441.19;2080064;28;24645;-72
2023/01/05 02:51:00;;;;;;;14.27;1.95;;;;;;;-146.25;98.11;52502.03;2080936;28;20041;-72
2023/01/05 02:52:05;;;;;;;12.85;1.77;;;;;;;-146.25;97.45;52457.41;2083771;28;20096;-71
2023/01/05 02:53:15;;;;;;;15.55;2.13;;;;;;;-146.25;97.19;52481.75;2072942;28;20105;-71
2023/01/05 02:54:44;;;;;;;16.95;1.98;;;;;;;-146.25;97.55;52512.16;2081962;28;29691;-72
2023/01/05 02:55:56;;;;;;;17.40;2.20;;;;;;;-146.25;97.34;52516.22;2080030;28;20049;-72
2023/01/05 02:57:12;;;;;;;16.23;1.92;;;;;;;-146.25;96.98;52485.81;2078106;28;20162;-72
2023/01/05 02:58:31;;;;;;;16.08;1.92;;;;;;;-146.25;96.88;52473.63;2068426;28;20050;-71
2023/01/05 02:59:41;;;;;;;15.10;1.83;;;;;;;-146.25;96.22;52512.16;2070319;28;20055;-71
2023/01/05 03:00:51;;;;;;;14.55;1.98;;;;;;;-146.25;96.40;52506.06;2071355;28;20952;-71
2023/01/05 03:02:00;;;;;;;13.68;1.90;;;;;;;-146.25;96.20;52491.88;2081438;28;20046;-72
2023/01/05 03:03:31;;;;;;;17.50;2.08;;;;;;;-146.25;96.33;52481.75;2083331;28;20053;-71
2023/01/05 03:04:43;;;;;;;11.38;1.40;;;;;;;-146.25;96.49;52536.50;2092766;28;20048;-71
2023/01/05 03:05:56;;;;;;;17.45;1.80;;;;;;;-146.25;96.33;52508.09;2067231;28;20042;-71
2023/01/05 03:07:06;;;;;;;14.07;1.80;;;;;;;-146.25;96.58;52497.97;2060128;28;20043;-71
2023/01/05 03:08:20;;;;;;;20.17;2.60;;;;;;;-146.25;96.42;52491.88;2067322;28;20039;-71
2023/01/05 03:09:35;;;;;;;19.80;2.30;;;;;;;-146.25;95.92;52465.53;2074645;28;20080;-71
2023/01/05 03:14:19;;;;;;;12.60;1.80;;;;;;;-146.25;95.92;52500.00;2079963;28;20077;-73
2023/01/05 03:15:29;;;;;;;17.55;2.13;;;;;;;-146.25;95.85;52485.81;2075675;28;20046;-73
2023/01/05 03:16:37;;;;;;;13.52;1.60;;;;;;;-146.25;95.77;52485.81;2083422;28;20048;-73
2023/01/05 03:17:45;;;;;;;20.00;1.98;;;;;;;-146.25;95.79;52502.03;2089270;28;20045;-73
2023/01/05 03:20:17;;;;;;;20.48;1.95;;;;;;;-146.25;95.23;52483.78;2087565;28;20116;-73
2023/01/05 03:21:19;;;;;;;21.73;1.80;;;;;;;-146.25;95.39;52489.84;2096174;28;22627;-73
2023/01/05 03:35:40;;;;;;;17.77;2.00;;;;;;;-146.25;94.70;52469.56;2096016;28;20102;-71
2023/01/05 03:36:57;;;;;;;19.05;1.95;;;;;;;-146.25;94.77;52479.72;2078736;28;20069;-72
2023/01/05 03:38:30;;;;;;;13.88;1.25;;;;;;;-146.25;94.50;52495.94;2085030;28;20181;-72
2023/01/05 03:39:40;;;;;;;15.25;1.67;;;;;;;-146.25;94.09;52514.19;2092454;28;20179;-72
2023/01/05 03:40:44;;;;;;;19.42;1.92;;;;;;;-146.25;93.42;52461.47;2080081;28;20168;-71
2023/01/05 03:41:47;;;;;;;16.77;2.08;;;;;;;-146.25;93.59;52485.81;2071950;28;20038;-72
2023/01/05 03:42:49;;;;;;;13.68;1.48;;;;;;;-146.25;93.69;52504.03;2088359;28;20073;-72
2023/01/05 03:43:52;;;;;;;18.45;1.92;;;;;;;-146.25;92.96;52471.59;2087688;28;20044;-72
2023/01/05 03:44:57;;;;;;;20.42;1.90;;;;;;;-146.25;93.37;52502.03;2080112;28;20849;-72
2023/01/05 03:46:30;;;;;;;17.05;2.28;;;;;;;-146.25;93.72;52471.59;2079699;28;20072;-72
2023/01/05 03:47:31;;;;;;;12.52;1.75;;;;;;;-146.25;93.20;52489.84;2089208;28;20912;-73
2023/01/05 03:48:33;;;;;;;11.50;1.50;;;;;;;-146.25;93.28;52461.47;2083982;28;25536;-72
2023/01/05 03:49:36;;;;;;;14.20;1.60;;;;;;;-146.25;93.64;52489.84;2080606;28;20044;-72
2023/01/05 03:50:38;;;;;;;20.20;2.03;;;;;;;-146.25;93.54;52495.94;2087892;28;20048;-72
2023/01/05 03:51:39;;;;;;;18.83;1.90;;;;;;;-146.25;93.42;52467.56;2087497;28;37091;-72
2023/01/05 03:52:43;;;;;;;17.92;2.03;;;;;;;-146.25;93.68;52471.59;2079442;28;20693;-72
2023/01/05 03:53:45;;;;;;;16.65;1.92;;;;;;;-146.25;93.96;52489.84;2079939;28;31247;-72
2023/01/05 03:54:47;;;;;;;17.73;1.50;;;;;;;-146.25;93.62;52445.25;2080263;28;20041;-72
2023/01/05 03:55:48;;;;;;;19.58;2.17;;;;;;;-146.25;94.26;52469.56;2080162;28;20030;-72
2023/01/05 03:56:50;;;;;;;18.38;1.70;;;;;;;-146.25;94.16;52465.53;2095801;28;20037;-72
2023/01/05 03:57:52;;;;;;;11.30;1.52;;;;;;;-146.25;94.57;52481.75;2097256;28;20041;-72
2023/01/05 03:58:54;;;;;;;16.88;1.73;;;;;;;-146.25;94.59;52518.25;2088168;28;20046;-71
2023/01/05 03:59:57;;;;;;;18.13;1.80;;;;;;;-146.25;94.39;52473.63;2080436;28;20168;-72
2023/01/05 04:01:02;;;;;;;14.52;1.83;;;;;;;-146.25;94.10;52500.00;2088517;28;20029;-72
2023/01/05 04:02:04;;;;;;;15.02;1.98;;;;;;;-146.25;94.23;52481.75;2088640;28;20045;-74
2023/01/05 04:03:09;;;;;;;17.77;2.08;;;;;;;-146.25;94.27;52475.66;2088178;28;20045;-73
2023/01/05 04:04:11;;;;;;;17.95;1.73;;;;;;;-146.25;94.67;52463.50;2088822;28;20037;-71
2023/01/05 04:05:13;;;;;;;16.40;2.08;;;;;;;-146.25;93.88;52481.75;2096328;28;20041;-73
2023/01/05 04:06:15;;;;;;;12.13;1.42;;;;;;;-146.25;94.12;52465.53;2096414;28;20084;-73
2023/01/05 04:07:17;;;;;;;15.38;1.80;;;;;;;-146.25;93.45;52483.78;2088074;28;20120;-73
2023/01/05 04:08:20;;;;;;;15.95;1.98;;;;;;;-146.25;93.65;52467.56;2096317;28;27124;-73
2023/01/05 04:09:23;;;;;;;10.80;1.70;;;;;;;-146.25;94.00;52506.06;2096057;28;20037;-73
2023/01/05 04:10:25;;;;;;;15.23;1.63;;;;;;;-146.25;93.87;52469.56;2088432;28;20814;-73
2023/01/05 04:11:27;;;;;;;15.30;1.60;;;;;;;-146.25;94.44;52512.16;2096291;28;20037;-73
2023/01/05 04:12:36;;;;;;;19.50;2.20;;;;;;;-146.25;93.78;52481.75;2096341;28;20037;-73
2023/01/05 04:13:38;;;;;;;20.45;2.20;;;;;;;-146.25;94.49;52514.19;2088031;28;20949;-73
2023/01/05 04:14:42;;;;;;;20.35;2.05;;;;;;;-146.25;94.48;52483.78;2088144;28;20050;-73
2023/01/05 04:15:44;;;;;;;19.05;2.10;;;;;;;-146.25;93.95;52465.53;2096679;28;20033;-73
2023/01/05 04:16:46;;;;;;;13.82;1.40;;;;;;;-146.25;94.16;52506.06;2097749;28;20093;-73
2023/01/05 04:17:53;;;;;;;13.90;1.80;;;;;;;-146.25;94.74;52485.81;2087851;28;20072;-73
2023/01/05 04:18:55;;;;;;;13.75;1.70;;;;;;;-146.25;94.92;52483.78;2072660;28;20046;-73
2023/01/05 04:19:59;;;;;;;16.42;2.25;;;;;;;-146.25;94.75;52500.00;2077672;28;20148;-73
2023/01/05 04:21:02;;;;;;;16.88;2.60;;;;;;;-146.25;95.46;52479.72;2078758;28;34784;-73
2023/01/05 04:22:04;;;;;;;14.43;1.83;;;;;;;-146.25;95.13;52467.56;2088763;28;20041;-73
2023/01/05 04:23:09;;;;;;;15.55;1.65;;;;;;;-146.25;95.56;52500.00;2087194;28;20049;-73
2023/01/05 04:24:11;;;;;;;21.55;2.17;;;;;;;-146.25;95.95;52487.81;2079898;28;20038;-73
2023/01/05 04:25:16;;;;;;;18.50;2.03;;;;;;;-146.25;95.77;52489.84;2071745;28;20061;-73
2023/01/05 04:26:18;;;;;;;14.98;1.85;;;;;;;-146.25;95.43;52475.66;2071728;28;20065;-73
2023/01/05 04:27:24;;;;;;;24.83;2.33;;;;;;;-146.25;95.30;52497.97;2088303;28;20049;-72
2023/01/05 04:28:26;;;;;;;13.85;1.55;;;;;;;-146.25;95.41;52471.59;2096205;28;20341;-73
2023/01/05 04:29:30;;;;;;;14.40;2.17;;;;;;;-146.25;95.76;52485.81;2079637;28;20116;-73
2023/01/05 04:30:34;;;;;;;16.58;1.83;;;;;;;-146.25;95.23;52483.78;2080016;28;20113;-73
2023/01/05 04:31:37;;;;;;;16.45;1.85;;;;;;;-146.25;95.55;52431.06;2096174;28;20990;-73
2023/01/05 04:32:39;;;;;;;19.10;2.10;;;;;;;-146.25;95.64;52477.69;2088140;28;20179;-73
2023/01/05 04:33:45;;;;;;;14.80;2.42;;;;;;;-146.25;95.63;52461.47;2087888;28;20072;-73
2023/01/05 04:34:51;;;;;;;18.17;1.95;;;;;;;-146.25;96.00;52457.41;2087054;28;20048;-73
2023/01/05 04:35:55;;;;;;;19.65;1.73;;;;;;;-146.25;96.07;52504.03;2087925;28;20170;-73
2023/01/05 04:37:03;;;;;;;20.52;2.40;;;;;;;-146.25;96.55;52457.41;2079509;28;20049;-73
2023/01/05 04:38:08;;;;;;;21.55;2.03;;;;;;;-146.25;96.63;52473.63;2081662;28;21081;-73
2023/01/05 04:39:10;;;;;;;17.10;2.15;;;;;;;-146.25;96.29;52502.03;2088201;28;20923;-73
2023/01/05 04:40:14;;;;;;;21.95;2.03;;;;;;;-146.25;96.29;52449.31;2087826;28;20096;-73
2023/01/05 04:41:21;;;;;;;21.27;2.53;;;;;;;-146.25;96.48;52491.88;2087104;28;20037;-73
2023/01/05 04:42:25;;;;;;;12.75;1.42;;;;;;;-146.25;96.61;52504.03;2079364;28;20168;-73
2023/01/05 04:43:29;;;;;;;20.63;2.05;;;;;;;-146.25;96.15;52473.63;2072213;28;20530;-73
2023/01/05 04:44:33;;;;;;;18.05;2.47;;;;;;;-146.25;96.79;52461.47;2071668;28;20062;-73
2023/01/05 04:45:37;;;;;;;20.77;2.88;;;;;;;-146.25;96.75;52524.31;2079571;28;20042;-73
2023/01/05 04:46:41;;;;;;;16.67;2.33;;;;;;;-146.25;96.74;52506.06;2071730;28;20050;-73
2023/01/05 04:47:44;;;;;;;15.20;2.00;;;;;;;-146.25;96.48;52463.50;2072095;28;20108;-73
2023/01/05 04:48:50;;;;;;;20.38;2.30;;;;;;;-146.25;96.87;52469.56;2064007;28;20042;-73
2023/01/05 04:49:54;;;;;;;19.65;2.10;;;;;;;-146.25;96.07;52479.72;2083120;28;20172;-73
2023/01/05 04:50:56;;;;;;;17.88;2.35;;;;;;;-146.25;96.53;52489.84;2095998;28;20041;-73
2023/01/05 04:52:05;;;;;;;19.02;2.08;;;;;;;-146.25;95.13;52477.69;2080537;28;20042;-73
2023/01/05 04:53:09;;;;;;;19.38;2.25;;;;;;;-146.25;95.33;52481.75;2088004;28;20148;-73
2023/01/05 04:54:17;;;;;;;19.98;1.88;;;;;;;-146.25;95.45;52483.78;2087743;28;20127;-73
2023/01/05 04:55:19;;;;;;;12.55;1.70;;;;;;;-146.25;95.30;52493.91;2087812;28;20041;-73
2023/01/05 04:56:21;;;;;;;27.33;2.58;;;;;;;-146.25;94.82;52502.03;2079491;28;20181;-73
2023/01/05 04:57:23;;;;;;;17.15;1.80;;;;;;;-146.25;94.15;52483.78;2079497;28;20053;-73
2023/01/05 04:58:26;;;;;;;18.63;2.20;;;;;;;-146.25;94.63;52497.97;2079814;28;20344;-73
2023/01/05 04:59:31;;;;;;;10.73;1.50;;;;;;;-146.25;93.94;52497.97;2088087;28;20054;-73
2023/01/05 05:00:38;;;;;;;15.25;2.00;;;;;;;-146.25;94.08;52497.97;2087799;28;20152;-73
2023/01/05 05:01:41;;;;;;;23.00;1.90;;;;;;;-146.25;94.03;52473.63;2079479;28;20092;-73
2023/01/05 05:02:45;;;;;;;20.30;2.10;;;;;;;-146.25;93.87;52495.94;2079839;28;20077;-73
2023/01/05 05:03:48;;;;;;;16.85;2.08;;;;;;;-146.25;93.86;52506.06;2071609;28;21109;-73
2023/01/05 05:04:53;;;;;;;14.32;2.13;;;;;;;-146.25;93.75;52497.97;2071198;28;20552;-73
2023/01/05 05:05:57;;;;;;;17.35;2.03;;;;;;;-146.25;94.10;52481.75;2080067;28;20203;-73
2023/01/05 05:07:01;;;;;;;14.93;1.60;;;;;;;-146.25;94.03;52532.44;2079561;28;20173;-73
2023/01/05 05:08:05;;;;;;;15.30;1.98;;;;;;;-146.25;93.45;52485.81;2072020;28;20809;-73
2023/01/05 05:09:09;;;;;;;19.05;2.22;;;;;;;-146.25;93.44;52493.91;2071446;28;20899;-73
2023/01/05 05:10:16;;;;;;;12.57;1.98;;;;;;;-146.25;93.84;52479.72;2079968;28;20910;-73
2023/01/05 05:11:19;;;;;;;14.43;2.30;;;;;;;-146.25;93.66;52485.81;2086995;28;20046;-73
2023/01/05 05:12:22;;;;;;;14.43;1.58;;;;;;;-146.25;93.49;52497.97;2071815;28;20816;-73
2023/01/05 05:13:26;;;;;;;12.82;1.65;;;;;;;-146.25;93.64;52471.59;2071612;28;20057;-73
2023/01/05 05:14:27;;;;;;;17.27;1.92;;;;;;;-146.25;93.62;52481.75;2086860;28;20168;-72
2023/01/05 05:15:32;;;;;;;15.00;2.13;;;;;;;-146.25;94.03;52510.13;2079430;28;20038;-73
2023/01/05 05:16:36;;;;;;;16.40;1.48;;;;;;;-146.25;94.14;52469.56;2096683;28;20049;-73
2023/01/05 05:17:39;;;;;;;18.45;2.10;;;;;;;-146.25;94.46;52469.56;2096388;28;20834;-73
2023/01/05 05:18:44;;;;;;;15.65;1.65;;;;;;;-146.25;94.90;52502.03;2080451;28;20049;-73
2023/01/05 05:19:51;;;;;;;17.05;1.73;;;;;;;-146.25;94.54;52489.84;2081533;28;20050;-73
2023/01/05 05:20:55;;;;;;;20.77;2.28;;;;;;;-146.25;95.63;52457.41;2088094;28;20045;-73
2023/01/05 05:22:04;;;;;;;21.77;2.20;;;;;;;-146.25;95.59;52487.81;2088197;28;21699;-73
2023/01/05 05:23:05;;;;;;;18.40;1.95;;;;;;;-146.25;95.08;52483.78;2088101;28;21693;-73
2023/01/05 05:24:08;;;;;;;17.17;2.25;;;;;;;-146.25;95.86;52508.09;2087756;28;20092;-73
2023/01/05 05:25:15;;;;;;;18.73;1.80;;;;;;;-146.25;95.69;52497.97;2088734;28;20131;-73
2023/01/05 05:26:20;;;;;;;17.73;1.67;;;;;;;-146.25;96.35;52493.91;2088606;28;20046;-73
2023/01/05 05:27:23;;;;;;;20.95;2.33;;;;;;;-146.25;95.95;52445.25;2087783;28;20165;-73
2023/01/05 05:28:27;;;;;;;19.75;2.72;;;;;;;-146.25;96.26;52504.03;2087984;28;20053;-73
2023/01/05 05:29:28;;;;;;;17.45;1.90;;;;;;;-146.25;96.94;52473.63;2095352;28;40469;-73
2023/01/05 05:30:30;;;;;;;21.88;2.80;;;;;;;-146.25;96.83;52510.13;2095997;28;36124;-73
2023/01/05 05:31:32;;;;;;;15.40;2.45;;;;;;;-146.25;97.20;52465.53;2095939;28;38586;-73
2023/01/05 05:32:34;;;;;;;22.17;2.35;;;;;;;-146.25;96.47;52502.03;2095777;28;39932;-73